Terminal Aerodrome Forecast
Issued by NWS Binghamton, NY

Home | Current Version | Previous Version | Text Only | Print | Product List | Glossary On
Versions: 1 2 3 4 5 6 7 8 9 10 11 12 13 14 15
840
FTUS41 KBGM 111138
TAFAVP
TAF
KAVP 111138Z 1112/1212 19003KT P6SM SCT080 OVC150
     FM111600 19006KT P6SM -SN OVC035
      TEMPO 1117/1121 2SM -SN OVC020
     FM112100 18007KT 2SM -SN OVC015
     FM120500 17007KT 3/4SM -SN OVC012
     FM120900 19007KT 3SM -RASN OVC008=

USA.gov is the U.S. government's official web portal to all federal, state and local government web resources and services.